Time;durP1;ratioP1;P1;durP2;ratioP2;P2;SDS_P1;SDS_P2;PMS_P1;PMS_P2;Temp;Humidity;BMP_temperature;BMP_pressure;BME280_temperature;BME280_humidity;BME280_pressure;Samples;Min_cycle;Max_cycle;Signal;HPM_P1;HPM_P2
2021/09/14 00:00:47;;;;;;;6.5;5;;;;;;;;;;;;;
2021/09/14 00:03:12;;;;;;;12;10.7;;;;;;;;;;;;;
2021/09/14 00:05:37;;;;;;;78.3;63.1;;;;;;;;;;;;;
2021/09/14 00:08:02;;;;;;;87.1;70.2;;;;;;;;;;;;;
2021/09/14 00:10:27;;;;;;;18.9;16.2;;;;;;;;;;;;;
2021/09/14 00:12:53;;;;;;;7.6;6.5;;;;;;;;;;;;;
2021/09/14 00:15:18;;;;;;;4.8;4.3;;;;;;;;;;;;;
2021/09/14 00:17:43;;;;;;;25.7;23.1;;;;;;;;;;;;;
2021/09/14 00:20:08;;;;;;;9.5;8.6;;;;;;;;;;;;;
2021/09/14 00:22:33;;;;;;;7.2;6.5;;;;;;;;;;;;;
2021/09/14 00:24:58;;;;;;;8.8;8;;;;;;;;;;;;;
2021/09/14 00:27:23;;;;;;;6.8;6;;;;;;;;;;;;;
2021/09/14 00:29:48;;;;;;;4.8;4.3;;;;;;;;;;;;;
2021/09/14 00:32:14;;;;;;;5.9;4.2;;;;;;;;;;;;;
2021/09/14 00:34:39;;;;;;;4.3;3.9;;;;;;;;;;;;;
2021/09/14 00:37:04;;;;;;;4.3;3.9;;;;;;;;;;;;;
2021/09/14 00:39:29;;;;;;;6.8;6.1;;;;;;;;;;;;;
2021/09/14 00:41:55;;;;;;;6.4;4.8;;;;;;;;;;;;;
2021/09/14 00:44:21;;;;;;;6.9;5.3;;;;;;;;;;;;;
2021/09/14 00:46:46;;;;;;;4.4;4;;;;;;;;;;;;;
2021/09/14 00:49:12;;;;;;;4.9;4.2;;;;;;;;;;;;;
2021/09/14 00:51:36;;;;;;;5;4.5;;;;;;;;;;;;;
2021/09/14 00:54:01;;;;;;;5;4.2;;;;;;;;;;;;;
2021/09/14 00:56:27;;;;;;;5.9;5;;;;;;;;;;;;;
2021/09/14 00:58:51;;;;;;;6.6;5.3;;;;;;;;;;;;;
2021/09/14 01:01:16;;;;;;;5.5;4.9;;;;;;;;;;;;;
2021/09/14 01:03:41;;;;;;;5.8;4.8;;;;;;;;;;;;;
2021/09/14 01:06:07;;;;;;;5.2;4.5;;;;;;;;;;;;;
2021/09/14 01:08:33;;;;;;;5.7;4.6;;;;;;;;;;;;;
2021/09/14 01:10:58;;;;;;;5.5;4.1;;;;;;;;;;;;;
2021/09/14 01:13:23;;;;;;;6.6;4.8;;;;;;;;;;;;;
2021/09/14 01:15:48;;;;;;;5.2;4.6;;;;;;;;;;;;;
2021/09/14 01:18:13;;;;;;;4.9;4.4;;;;;;;;;;;;;
2021/09/14 01:20:38;;;;;;;5.9;4.3;;;;;;;;;;;;;
2021/09/14 01:23:04;;;;;;;5.4;4.4;;;;;;;;;;;;;
2021/09/14 01:25:29;;;;;;;6.6;4.7;;;;;;;;;;;;;
2021/09/14 01:27:59;;;;;;;5.9;4.5;;;;;;;;;;;;;
2021/09/14 01:30:25;;;;;;;4.8;4.3;;;;;;;;;;;;;
2021/09/14 01:32:50;;;;;;;6.5;4.5;;;;;;;;;;;;;
2021/09/14 01:35:15;;;;;;;4.8;4.3;;;;;;;;;;;;;
2021/09/14 01:37:40;;;;;;;4.8;4.2;;;;;;;;;;;;;
2021/09/14 01:40:05;;;;;;;4.8;4.3;;;;;;;;;;;;;
2021/09/14 01:42:30;;;;;;;7.8;4.6;;;;;;;;;;;;;
2021/09/14 01:44:55;;;;;;;4.9;4.4;;;;;;;;;;;;;
2021/09/14 01:47:21;;;;;;;5.3;4;;;;;;;;;;;;;
2021/09/14 01:49:46;;;;;;;5.5;4.2;;;;;;;;;;;;;
2021/09/14 01:52:11;;;;;;;5.1;4.1;;;;;;;;;;;;;
2021/09/14 01:54:36;;;;;;;5.1;4.3;;;;;;;;;;;;;
2021/09/14 01:57:01;;;;;;;4.9;4.2;;;;;;;;;;;;;
2021/09/14 01:59:26;;;;;;;5.4;4.4;;;;;;;;;;;;;
2021/09/14 02:01:58;;;;;;;4.5;4;;;;;;;;;;;;;
2021/09/14 02:04:19;;;;;;;5.6;4.4;;;;;;;;;;;;;
2021/09/14 02:23:38;;;;;;;4.7;4.2;;;;;;;;;;;;;
2021/09/14 02:23:58;;;;;;;6.1;4.6;;;;;;;;;;;;;
2021/09/14 02:38:31;;;;;;;4.7;4.2;;;;;;;;;;;;;
2021/09/14 02:40:57;;;;;;;5.4;4.6;;;;;;;;;;;;;
2021/09/14 02:43:20;;;;;;;4.7;4.2;;;;;;;;;;;;;
2021/09/14 02:59:55;;;;;;;5.1;4.3;;;;;;;;;;;;;
2021/09/14 03:02:20;;;;;;;4.7;4.2;;;;;;;;;;;;;
2021/09/14 03:04:45;;;;;;;5.3;4.7;;;;;;;;;;;;;
2021/09/14 03:07:10;;;;;;;5;4.4;;;;;;;;;;;;;
2021/09/14 03:09:35;;;;;;;5.6;4.2;;;;;;;;;;;;;
2021/09/14 03:12:01;;;;;;;6.7;4.7;;;;;;;;;;;;;
2021/09/14 03:14:26;;;;;;;6.6;4.4;;;;;;;;;;;;;
2021/09/14 03:16:51;;;;;;;5.2;4.7;;;;;;;;;;;;;
2021/09/14 03:19:17;;;;;;;5.8;4.1;;;;;;;;;;;;;
2021/09/14 03:21:42;;;;;;;5.8;4.9;;;;;;;;;;;;;
2021/09/14 03:24:07;;;;;;;7.1;4.5;;;;;;;;;;;;;
2021/09/14 03:26:32;;;;;;;6.3;4.9;;;;;;;;;;;;;
2021/09/14 03:28:57;;;;;;;5.6;4.2;;;;;;;;;;;;;
2021/09/14 03:31:31;;;;;;;5.5;4.7;;;;;;;;;;;;;
2021/09/14 03:33:57;;;;;;;4.6;4.1;;;;;;;;;;;;;
2021/09/14 03:36:22;;;;;;;5.4;4.4;;;;;;;;;;;;;
2021/09/14 03:38:47;;;;;;;5.4;4.7;;;;;;;;;;;;;
2021/09/14 03:41:51;;;;;;;6.1;4.6;;;;;;;;;;;;;
2021/09/14 03:44:01;;;;;;;5.6;4.9;;;;;;;;;;;;;
2021/09/14 03:46:27;;;;;;;7.3;4.9;;;;;;;;;;;;;
2021/09/14 03:48:56;;;;;;;5.5;4.7;;;;;;;;;;;;;
2021/09/14 03:51:21;;;;;;;5.2;4.6;;;;;;;;;;;;;
2021/09/14 03:53:46;;;;;;;5.4;4.5;;;;;;;;;;;;;
2021/09/14 03:56:11;;;;;;;5.5;4.5;;;;;;;;;;;;;
2021/09/14 03:58:36;;;;;;;6.6;4.6;;;;;;;;;;;;;
2021/09/14 04:02:35;;;;;;;6.7;4.8;;;;;;;15.84;90.58984;938.6687;;;;
2021/09/14 04:05:04;;;;;;;6.7;4.6;;;;;;;15.74;90.83496;938.6934;;;;
2021/09/14 04:07:37;;;;;;;8;5.3;;;;;;;15.7;91.3125;938.7164;;;;
2021/09/14 04:09:44;;;;;;;6.4;5;;;;;;;15.67;91.32813;938.6741;;;;
2021/09/14 04:12:10;;;;;;;5.5;4.4;;;;;;;15.61;91.55762;938.6181;;;;
2021/09/14 04:14:35;;;;;;;6.2;4.7;;;;;;;15.56;91.62891;938.64;;;;
2021/09/14 04:17:01;;;;;;;5.9;4.7;;;;;;;15.5;92.16992;938.663;;;;
2021/09/14 04:19:38;;;;;;;7;4.7;;;;;;;15.51;92.12598;938.6766;;;;
2021/09/14 04:21:52;;;;;;;8.2;4.9;;;;;;;15.53;91.86426;938.7374;;;;
2021/09/14 04:24:17;;;;;;;5.9;5.3;;;;;;;15.45;92.4375;938.6931;;;;
2021/09/14 04:26:42;;;;;;;8.1;5.5;;;;;;;15.33;93.69238;938.7685;;;;
2021/09/14 04:29:07;;;;;;;5.8;5;;;;;;;15.43;93.22852;938.7255;;;;
2021/09/14 04:31:32;;;;;;;7.2;5;;;;;;;15.42;92.89355;938.7592;;;;
2021/09/14 04:33:57;;;;;;;6.2;5;;;;;;;15.33;93.24414;938.7059;;;;
2021/09/14 04:36:23;;;;;;;5.9;4.9;;;;;;;15.19;94.45996;938.8069;;;;
2021/09/14 04:38:49;;;;;;;6.6;4.8;;;;;;;15.36;93.39844;938.8148;;;;
2021/09/14 04:41:15;;;;;;;5.9;4.7;;;;;;;15.44;92.9209;938.8072;;;;
2021/09/14 04:43:40;;;;;;;6.7;4.7;;;;;;;15.52;92.0127;938.8434;;;;
2021/09/14 04:46:42;;;;;;;5.5;4.8;;;;;;;15.53;91.5293;938.7944;;;;
2021/09/14 04:49:07;;;;;;;5.6;4.2;;;;;;;15.32;92.5127;938.9186;;;;
2021/09/14 04:51:32;;;;;;;6;4.6;;;;;;;15.37;92.08594;938.9447;;;;
2021/09/14 04:53:57;;;;;;;6;4.4;;;;;;;15.42;91.71387;938.8897;;;;
2021/09/14 04:56:22;;;;;;;5.6;4.6;;;;;;;15.37;91.66992;938.9334;;;;
2021/09/14 04:58:49;;;;;;;9.6;7.7;;;;;;;15.4;91.45605;938.8497;;;;
2021/09/14 05:01:12;;;;;;;13.4;10.8;;;;;;;15.42;91.70313;938.8175;;;;
2021/09/14 05:03:37;;;;;;;6.5;4.6;;;;;;;15.46;91.29688;938.7733;;;;
2021/09/14 05:06:02;;;;;;;9;4.8;;;;;;;15.44;91.18848;938.9026;;;;
2021/09/14 05:08:28;;;;;;;7.3;5.3;;;;;;;15.47;90.97461;938.9041;;;;
2021/09/14 05:10:53;;;;;;;41.1;31.6;;;;;;;15.41;91.21582;938.9083;;;;
2021/09/14 05:13:18;;;;;;;32;26.2;;;;;;;15.41;91.42383;938.8537;;;;
2021/09/14 05:15:43;;;;;;;14.4;11.7;;;;;;;15.41;91.28516;938.84;;;;
2021/09/14 05:18:12;;;;;;;52.4;45.4;;;;;;;15.3;92.00098;938.8546;;;;
2021/09/14 05:20:33;;;;;;;14.1;12;;;;;;;15.29;92.57617;938.8588;;;;
2021/09/14 05:23:11;;;;;;;9.5;8.3;;;;;;;15.3;92.01074;938.8265;;;;
2021/09/14 05:25:24;;;;;;;36.5;31.9;;;;;;;15.3;93.37305;938.837;;;;
2021/09/14 05:27:49;;;;;;;7.7;6.9;;;;;;;15.33;92.59766;938.945;;;;
2021/09/14 05:30:14;;;;;;;60;45.1;;;;;;;15.37;92.0625;938.9671;;;;
2021/09/14 05:32:39;;;;;;;9.3;8.1;;;;;;;15.32;92.0166;938.9122;;;;
2021/09/14 05:35:05;;;;;;;8.8;4.9;;;;;;;15.42;91.6123;938.8306;;;;
2021/09/14 05:37:30;;;;;;;31.5;26.3;;;;;;;15.56;90.81836;938.9097;;;;
2021/09/14 05:40:06;;;;;;;35.6;29;;;;;;;15.65;90.44629;938.7803;;;;
2021/09/14 05:42:31;;;;;;;12.6;10.6;;;;;;;15.86;89.81934;938.8508;;;;
2021/09/14 05:44:56;;;;;;;8.2;6.1;;;;;;;15.93;89.19824;938.8412;;;;
2021/09/14 05:47:21;;;;;;;7.1;6.1;;;;;;;15.86;89.68066;938.8557;;;;
2021/09/14 05:49:46;;;;;;;8.1;4.8;;;;;;;15.96;89.18066;938.8674;;;;
2021/09/14 05:52:11;;;;;;;5.5;4.4;;;;;;;16.52;87.90527;938.812;;;;
2021/09/14 05:54:37;;;;;;;7.4;6.2;;;;;;;17.58;82.30566;938.8337;;;;
2021/09/14 05:57:02;;;;;;;5.9;4.7;;;;;;;18.51;78.2334;938.8275;;;;
2021/09/14 05:59:27;;;;;;;7.7;5.8;;;;;;;19.19;74.36133;938.7687;;;;
2021/09/14 06:01:52;;;;;;;7.5;4.5;;;;;;;19.87;71.20898;938.8304;;;;
2021/09/14 06:04:17;;;;;;;6.1;4.2;;;;;;;20.32;68.16309;938.8056;;;;
2021/09/14 06:06:42;;;;;;;6.5;4.2;;;;;;;20.57;67.08008;938.8195;;;;
2021/09/14 06:11:33;;;;;;;4.9;3.7;;;;;;;20.45;67.78711;938.8253;;;;
2021/09/14 06:13:58;;;;;;;8.1;4.8;;;;;;;22.04;63.13086;938.8;;;;
2021/09/14 06:16:23;;;;;;;5.1;3.7;;;;;;;22.77;59.41895;938.8224;;;;
2021/09/14 06:18:48;;;;;;;5;4;;;;;;;22.45;60.45605;938.7946;;;;
2021/09/14 06:21:15;;;;;;;7.4;4.1;;;;;;;22.78;59.25586;938.7392;;;;
2021/09/14 06:23:40;;;;;;;4;3.6;;;;;;;23.48;56.84473;938.7836;;;;
2021/09/14 06:26:05;;;;;;;5.1;4.3;;;;;;;23.82;55.86523;938.7388;;;;
2021/09/14 06:28:31;;;;;;;4.5;3.8;;;;;;;24.65;53.20898;938.7908;;;;
2021/09/14 06:30:56;;;;;;;5.8;3.7;;;;;;;25.16;51.81836;938.761;;;;
2021/09/14 06:33:23;;;;;;;4.5;3.9;;;;;;;25.41;50.94922;938.7427;;;;
2021/09/14 06:38:13;;;;;;;4.5;3.7;;;;;;;25.44;50.90625;938.7037;;;;
2021/09/14 06:40:38;;;;;;;4.9;3.8;;;;;;;26.66;48.86523;938.7566;;;;
2021/09/14 06:43:03;;;;;;;4.3;3.5;;;;;;;27.24;47.07813;938.7633;;;;
2021/09/14 06:45:28;;;;;;;4.7;3.8;;;;;;;26.78;48.16797;938.8067;;;;
2021/09/14 06:47:54;;;;;;;6;3.7;;;;;;;25.99;50.16504;938.7939;;;;
2021/09/14 06:50:22;;;;;;;5.4;3.7;;;;;;;25.11;50.72656;938.8092;;;;
2021/09/14 06:52:46;;;;;;;3.7;3.4;;;;;;;24.12;55.56055;938.8383;;;;
2021/09/14 06:55:09;;;;;;;4.5;3.6;;;;;;;24.07;55.02441;938.8706;;;;
2021/09/14 06:57:34;;;;;;;4.7;3.6;;;;;;;23.5;57.28223;938.8308;;;;
2021/09/14 06:59:59;;;;;;;5.2;4;;;;;;;22.49;59.25293;938.8987;;;;
2021/09/14 07:02:24;;;;;;;5.1;3.9;;;;;;;21.4;62.29199;938.8438;;;;
2021/09/14 07:04:50;;;;;;;5.2;3.6;;;;;;;21.13;63.87891;938.8784;;;;
2021/09/14 07:07:15;;;;;;;5.6;4.2;;;;;;;21.33;63.94238;938.7969;;;;
2021/09/14 07:09:41;;;;;;;5.3;4.1;;;;;;;22.28;60.77148;938.7841;;;;
2021/09/14 07:12:06;;;;;;;7.3;3.9;;;;;;;22.69;59.71387;938.8148;;;;
2021/09/14 07:14:31;;;;;;;6;4;;;;;;;23.03;58.38672;938.8256;;;;
2021/09/14 07:16:56;;;;;;;4.6;3.7;;;;;;;23.76;57.19824;938.8479;;;;
2021/09/14 07:19:21;;;;;;;4.1;3.5;;;;;;;24.59;53.99219;938.7645;;;;
2021/09/14 07:21:46;;;;;;;4.7;3.6;;;;;;;23.56;56.24414;938.7952;;;;
2021/09/14 07:24:11;;;;;;;3.8;3.5;;;;;;;24.4;55.20605;938.7483;;;;
2021/09/14 07:26:36;;;;;;;4.1;3.7;;;;;;;24.96;54.38965;938.7463;;;;
2021/09/14 07:29:01;;;;;;;3.7;3.3;;;;;;;24.69;54.31055;938.7416;;;;
2021/09/14 07:31:30;;;;;;;4.3;3.9;;;;;;;24.7;55.63281;938.7062;;;;
2021/09/14 07:33:52;;;;;;;5.1;3.7;;;;;;;24.68;53.79004;938.6813;;;;
2021/09/14 07:36:17;;;;;;;4;3.6;;;;;;;24.74;53.02051;938.6825;;;;
2021/09/14 07:38:43;;;;;;;3.8;3.5;;;;;;;25.06;52.33789;938.663;;;;
2021/09/14 07:41:07;;;;;;;4.2;3.8;;;;;;;25.57;51.4873;938.6504;;;;
2021/09/14 07:43:32;;;;;;;4;3.6;;;;;;;26.49;50.42188;938.7363;;;;
2021/09/14 07:45:59;;;;;;;4.2;3.5;;;;;;;26.55;48.22656;938.6721;;;;
2021/09/14 07:48:24;;;;;;;4.1;3.7;;;;;;;27.12;46.37891;938.6509;;;;
2021/09/14 07:50:50;;;;;;;3.8;3.5;;;;;;;27.17;46.46582;938.6409;;;;
2021/09/14 07:53:15;;;;;;;4.6;3.4;;;;;;;27.49;46.45313;938.6108;;;;
2021/09/14 07:55:41;;;;;;;4.1;3.7;;;;;;;28.78;43.40918;938.6131;;;;
2021/09/14 07:58:06;;;;;;;4.1;3.5;;;;;;;29.02;42.72949;938.5672;;;;
2021/09/14 08:00:33;;;;;;;3.7;3.3;;;;;;;28.91;41.82715;938.5477;;;;
2021/09/14 08:02:58;;;;;;;3.5;3.2;;;;;;;29.1;42.10547;938.6133;;;;
2021/09/14 08:05:23;;;;;;;3.9;3.5;;;;;;;30.46;40.38086;938.6111;;;;
2021/09/14 08:07:48;;;;;;;3.7;3.4;;;;;;;29.46;39.26758;938.5351;;;;
2021/09/14 08:10:13;;;;;;;3.7;3.3;;;;;;;29.43;41.82715;938.4997;;;;
2021/09/14 08:12:39;;;;;;;3.8;3.1;;;;;;;30.42;39.6377;938.5464;;;;
2021/09/14 08:15:04;;;;;;;3.3;3;;;;;;;31.16;38.58984;938.5911;;;;
2021/09/14 08:17:29;;;;;;;3.9;3.6;;;;;;;30.78;38.78516;938.5214;;;;
2021/09/14 08:19:54;;;;;;;3.3;3;;;;;;;30.9;39.02148;938.5063;;;;
2021/09/14 08:22:22;;;;;;;3.7;3.2;;;;;;;32.54;36.21191;938.4888;;;;
2021/09/14 08:24:45;;;;;;;3.8;3.4;;;;;;;33.46;34.09668;938.4907;;;;
2021/09/14 08:27:10;;;;;;;4.5;3.2;;;;;;;33.52;33.52441;938.4567;;;;
2021/09/14 08:29:36;;;;;;;3.7;2.9;;;;;;;32.24;36.27148;938.4478;;;;
2021/09/14 08:32:01;;;;;;;3.3;3;;;;;;;33.33;34.42285;938.4277;;;;
2021/09/14 08:34:26;;;;;;;3.3;2.9;;;;;;;34.15;32.9082;938.45;;;;
2021/09/14 08:36:51;;;;;;;3.4;3.1;;;;;;;33.47;33.58008;938.4424;;;;
2021/09/14 08:39:16;;;;;;;3.1;2.8;;;;;;;34.05;33.12891;938.4546;;;;
2021/09/14 08:41:41;;;;;;;4.2;3.6;;;;;;;32.91;33.32324;938.4014;;;;
2021/09/14 08:44:06;;;;;;;3.6;3.2;;;;;;;33.5;33.37793;938.397;;;;
2021/09/14 08:46:34;;;;;;;5.3;3.6;;;;;;;34.12;31.78613;938.3906;;;;
2021/09/14 08:48:57;;;;;;;3.7;3.4;;;;;;;35.43;30.56152;938.4088;;;;
2021/09/14 08:51:22;;;;;;;3.7;3.4;;;;;;;33.78;31.30566;938.3958;;;;
2021/09/14 08:53:47;;;;;;;3.5;3.2;;;;;;;33.45;33.89063;938.3895;;;;
2021/09/14 08:56:13;;;;;;;3.5;3.2;;;;;;;32.37;34.0625;938.3522;;;;
2021/09/14 08:58:38;;;;;;;4.2;3.4;;;;;;;33.67;32.87305;938.3592;;;;
2021/09/14 09:01:03;;;;;;;3.8;3.5;;;;;;;32.78;33.20508;938.3521;;;;
2021/09/14 09:03:29;;;;;;;3.9;3.6;;;;;;;30.93;35.73633;938.3411;;;;
2021/09/14 09:05:54;;;;;;;3.6;3.3;;;;;;;32.64;33.79492;938.3467;;;;
2021/09/14 09:08:20;;;;;;;3.6;3.3;;;;;;;33.16;34.39844;938.3276;;;;
2021/09/14 09:10:46;;;;;;;3.8;3.1;;;;;;;33.83;32.34375;938.2859;;;;
2021/09/14 09:13:11;;;;;;;3.6;3.3;;;;;;;32.82;33.67676;938.2947;;;;
2021/09/14 09:15:43;;;;;;;3.7;3.4;;;;;;;32.93;34.21387;938.243;;;;
2021/09/14 09:18:08;;;;;;;3.7;3.4;;;;;;;34.22;31.81738;938.2681;;;;
2021/09/14 09:20:33;;;;;;;3.7;3.3;;;;;;;33.34;32.64551;938.247;;;;
2021/09/14 09:22:59;;;;;;;4.2;3.8;;;;;;;32.15;34.91016;938.2452;;;;
2021/09/14 09:25:24;;;;;;;3.9;3.5;;;;;;;32.8;33.49414;938.2502;;;;
2021/09/14 09:27:49;;;;;;;3.9;3.5;;;;;;;31.53;35.77051;938.2142;;;;
2021/09/14 09:30:15;;;;;;;3.8;3.5;;;;;;;29.98;37.43848;938.1811;;;;
2021/09/14 09:32:40;;;;;;;3.5;3.2;;;;;;;29.37;39.43848;938.0986;;;;
2021/09/14 09:35:05;;;;;;;4.1;3.7;;;;;;;29.45;40.31543;938.0884;;;;
2021/09/14 09:37:30;;;;;;;4.5;3.5;;;;;;;29.64;40.10547;938.0229;;;;
2021/09/14 09:39:55;;;;;;;4.2;3.8;;;;;;;28.91;41.95801;938.0426;;;;
2021/09/14 09:42:22;;;;;;;4;3.6;;;;;;;28.91;40.83789;938.0209;;;;
2021/09/14 09:44:45;;;;;;;4.1;3.7;;;;;;;28.7;40.23535;938.007;;;;
2021/09/14 09:47:10;;;;;;;3.9;3.5;;;;;;;28.26;41.71777;937.9952;;;;
2021/09/14 09:50:06;;;;;;;3.5;3.2;;;;;;;28.61;40.09766;937.9835;;;;
2021/09/14 09:52:31;;;;;;;4.5;3.6;;;;;;;28.64;41.16992;937.9894;;;;
2021/09/14 09:54:57;;;;;;;24.1;5.5;;;;;;;28.92;40.38672;937.9694;;;;
2021/09/14 09:57:22;;;;;;;4.7;3.5;;;;;;;29.02;40.21777;937.8528;;;;
2021/09/14 09:59:56;;;;;;;4.4;2.9;;;;;;;29.24;42.04688;937.8547;;;;
2021/09/14 10:02:13;;;;;;;3.8;3.4;;;;;;;29.74;42.59473;937.8245;;;;
2021/09/14 10:04:38;;;;;;;3.4;3.1;;;;;;;29.82;39.16699;937.8293;;;;
2021/09/14 10:07:03;;;;;;;3.5;3.1;;;;;;;29.1;41.46289;937.7762;;;;
2021/09/14 10:09:28;;;;;;;4;2.9;;;;;;;30.23;37.55566;937.8098;;;;
2021/09/14 10:11:54;;;;;;;3.8;3.4;;;;;;;30.94;37.98438;937.8;;;;
2021/09/14 10:14:20;;;;;;;3.4;3.1;;;;;;;31.64;35.25391;937.7779;;;;
2021/09/14 10:16:46;;;;;;;3.3;3;;;;;;;31.87;33.46289;937.7012;;;;
2021/09/14 10:19:12;;;;;;;3.4;3.1;;;;;;;32.43;33.15527;937.7188;;;;
2021/09/14 10:21:37;;;;;;;3.3;3;;;;;;;32.95;33.02539;937.6736;;;;
2021/09/14 10:24:02;;;;;;;3.3;3;;;;;;;33.28;32.86914;937.6705;;;;
2021/09/14 10:26:27;;;;;;;3.3;2.8;;;;;;;33.8;30.54883;937.6902;;;;
2021/09/14 10:28:52;;;;;;;3.3;3;;;;;;;34.46;29.72461;937.6541;;;;
2021/09/14 10:31:18;;;;;;;3.8;3.2;;;;;;;34.32;29.58398;937.6575;;;;
2021/09/14 10:33:42;;;;;;;3.2;2.9;;;;;;;34.68;30.24609;937.6809;;;;
2021/09/14 10:36:07;;;;;;;2.6;2.4;;;;;;;35.04;29.19629;937.6008;;;;
2021/09/14 10:38:33;;;;;;;4.6;3;;;;;;;35.17;31.15918;937.6426;;;;
2021/09/14 10:40:59;;;;;;;4.4;3.2;;;;;;;35.29;30.00879;937.6046;;;;
2021/09/14 10:43:23;;;;;;;3.7;2.8;;;;;;;33.86;33.28516;937.6005;;;;
2021/09/14 10:45:48;;;;;;;3.1;2.8;;;;;;;33.32;34.14551;937.6454;;;;
2021/09/14 10:48:14;;;;;;;2.9;2.6;;;;;;;33.99;32.53516;937.6071;;;;
2021/09/14 10:50:39;;;;;;;2.7;2.5;;;;;;;33.47;32.59473;937.5865;;;;
2021/09/14 10:53:19;;;;;;;2.8;2.6;;;;;;;33.6;34.16797;937.6082;;;;
2021/09/14 10:55:30;;;;;;;3.5;2.8;;;;;;;33.24;32.60156;937.5477;;;;
2021/09/14 10:57:54;;;;;;;3.2;2.7;;;;;;;33.2;34.7627;937.5562;;;;
2021/09/14 11:00:19;;;;;;;2.6;2.4;;;;;;;35.03;29.84668;937.5998;;;;
2021/09/14 11:02:50;;;;;;;2.8;2.5;;;;;;;35.86;28.08789;937.6256;;;;
2021/09/14 11:05:15;;;;;;;2.8;2.6;;;;;;;34.77;30.95117;937.6376;;;;
2021/09/14 11:07:40;;;;;;;3.4;2.8;;;;;;;34.06;31.67383;937.6573;;;;
2021/09/14 11:10:10;;;;;;;2.8;2.6;;;;;;;35.13;29.3584;937.6518;;;;
2021/09/14 11:12:30;;;;;;;2.8;2.5;;;;;;;34.11;32.60352;937.6575;;;;
2021/09/14 11:14:57;;;;;;;2.5;2.3;;;;;;;35.16;30.19336;937.623;;;;
2021/09/14 11:17:22;;;;;;;2.4;2.2;;;;;;;34.16;30.7168;937.5876;;;;
2021/09/14 11:19:51;;;;;;;3;2.6;;;;;;;33.01;33.79883;937.5637;;;;
2021/09/14 11:22:13;;;;;;;3;2.5;;;;;;;32.68;33.66602;937.5255;;;;
2021/09/14 11:24:38;;;;;;;3.1;2.4;;;;;;;31.2;36.45215;937.5449;;;;
2021/09/14 11:27:03;;;;;;;2.6;2.4;;;;;;;31.24;36.17969;937.5383;;;;
2021/09/14 11:29:30;;;;;;;2.6;2.4;;;;;;;31.32;35.91113;937.5774;;;;
2021/09/14 11:31:55;;;;;;;2.6;2.4;;;;;;;30.72;40.37988;937.5185;;;;
2021/09/14 11:34:20;;;;;;;3.1;2.2;;;;;;;30.88;37.52637;937.4872;;;;
2021/09/14 11:36:46;;;;;;;2.8;2.5;;;;;;;31.31;36.33008;937.4833;;;;
2021/09/14 11:39:16;;;;;;;2.4;2.2;;;;;;;31.67;37.61523;937.4611;;;;
2021/09/14 11:41:43;;;;;;;3.9;2.5;;;;;;;31.27;39.06641;937.5037;;;;
2021/09/14 11:44:07;;;;;;;7.4;2.7;;;;;;;30.63;40.34863;937.449;;;;
2021/09/14 11:46:31;;;;;;;2.5;2.3;;;;;;;30.04;40.60645;937.4625;;;;
2021/09/14 11:48:58;;;;;;;3.3;2.6;;;;;;;30.05;40.8457;937.4056;;;;
2021/09/14 11:51:22;;;;;;;3.9;2.4;;;;;;;29.96;39.58496;937.3389;;;;
2021/09/14 11:53:48;;;;;;;2.6;2.4;;;;;;;30.31;40.11719;937.358;;;;
2021/09/14 11:56:13;;;;;;;3.4;2.6;;;;;;;29.88;42.17871;937.3622;;;;
2021/09/14 11:58:38;;;;;;;3.1;2.6;;;;;;;29.46;42.74707;937.2762;;;;
2021/09/14 12:01:08;;;;;;;3.1;2.5;;;;;;;29.04;45.75586;937.3533;;;;
2021/09/14 12:03:30;;;;;;;2.7;2.5;;;;;;;29.44;42.18555;937.3807;;;;
2021/09/14 12:05:55;;;;;;;3;2.4;;;;;;;29.7;40.92188;937.3215;;;;
2021/09/14 12:08:21;;;;;;;3;2.7;;;;;;;29.53;42.09863;937.3613;;;;
2021/09/14 12:10:47;;;;;;;3.1;2.8;;;;;;;29.65;41.17969;937.342;;;;
2021/09/14 12:13:13;;;;;;;3;2.6;;;;;;;29.7;43.59277;937.338;;;;
2021/09/14 12:15:37;;;;;;;3.2;2.5;;;;;;;29.24;44.95313;937.2853;;;;
2021/09/14 12:18:01;;;;;;;2.7;2.5;;;;;;;28.97;44.30762;937.2821;;;;
2021/09/14 12:20:27;;;;;;;3;2.7;;;;;;;28.95;44.31738;937.2145;;;;
2021/09/14 12:22:52;;;;;;;7.2;2.9;;;;;;;29.3;43.45801;937.2529;;;;
2021/09/14 12:25:17;;;;;;;4.5;2.5;;;;;;;29.33;42.40137;937.2709;;;;
2021/09/14 12:27:43;;;;;;;5.4;3.1;;;;;;;29.4;41.57422;937.2163;;;;
2021/09/14 12:30:08;;;;;;;3.1;2.4;;;;;;;29.59;41.99609;937.2144;;;;
2021/09/14 12:32:34;;;;;;;2.5;2.3;;;;;;;29.03;46.25391;937.2349;;;;
2021/09/14 12:34:59;;;;;;;4.3;2.7;;;;;;;29.34;42.46191;937.157;;;;
2021/09/14 12:37:25;;;;;;;2.6;2.4;;;;;;;29.41;43.13477;937.1691;;;;
2021/09/14 12:39:50;;;;;;;5.4;2.8;;;;;;;28.91;45.08789;937.1981;;;;
2021/09/14 12:42:15;;;;;;;3.2;2.9;;;;;;;28.72;45.58008;937.1267;;;;
2021/09/14 12:44:40;;;;;;;2.6;2.4;;;;;;;28.44;46.69336;937.1042;;;;
2021/09/14 12:47:05;;;;;;;3.2;2.5;;;;;;;28.98;43.80859;937.1077;;;;
2021/09/14 12:49:34;;;;;;;3.9;2.9;;;;;;;28.81;45.51758;937.0656;;;;
2021/09/14 12:51:58;;;;;;;2.8;2.5;;;;;;;28.54;45.84668;937.0825;;;;
2021/09/14 12:54:23;;;;;;;7.5;3.8;;;;;;;28.27;47.79297;937.0995;;;;
2021/09/14 12:56:49;;;;;;;4.1;2.7;;;;;;;28.04;47.00781;937.068;;;;
2021/09/14 12:59:14;;;;;;;2.6;2.4;;;;;;;27.48;46.97266;937.0731;;;;
2021/09/14 13:01:39;;;;;;;3.2;2.6;;;;;;;27.05;48.26758;937.0878;;;;
2021/09/14 13:04:05;;;;;;;4.9;3;;;;;;;27.15;50.08105;937.0952;;;;
2021/09/14 13:06:30;;;;;;;13.3;3.8;;;;;;;27.35;47.91992;937.1024;;;;
2021/09/14 13:08:57;;;;;;;16.8;3.9;;;;;;;27.39;47.90137;937.1128;;;;
2021/09/14 13:11:21;;;;;;;2.9;2.4;;;;;;;27.19;50.30957;937.0728;;;;
2021/09/14 13:16:15;;;;;;;3.4;2.5;;;;;;;27.82;46.90234;937.0327;;;;
2021/09/14 13:18:36;;;;;;;2.7;2.5;;;;;;;28.21;46.36035;937.1295;;;;
2021/09/14 13:21:03;;;;;;;2.8;2.4;;;;;;;27.53;47.98828;937.0247;;;;
2021/09/14 13:23:27;;;;;;;2.6;2.4;;;;;;;27.83;47.36523;937.0684;;;;
2021/09/14 13:25:53;;;;;;;3;2.3;;;;;;;28.05;46.87891;937.0467;;;;
2021/09/14 13:28:18;;;;;;;2.9;2.6;;;;;;;27.74;47.72461;937.0624;;;;
2021/09/14 13:30:43;;;;;;;2.7;2.5;;;;;;;27.77;46.69434;937.0092;;;;
2021/09/14 13:33:08;;;;;;;3.6;2.9;;;;;;;28.12;45.45996;936.9939;;;;
2021/09/14 13:35:33;;;;;;;2.8;2.6;;;;;;;28.14;45.53223;936.975;;;;
2021/09/14 13:37:58;;;;;;;3;2.6;;;;;;;28.31;46.79883;936.9163;;;;
2021/09/14 13:40:24;;;;;;;2.9;2.5;;;;;;;28.42;45.48926;936.9495;;;;
2021/09/14 13:42:56;;;;;;;4.7;3.1;;;;;;;28.63;44.65527;936.8972;;;;
2021/09/14 13:47:40;;;;;;;20.7;4.3;;;;;;;27.5;49.19434;936.905;;;;
2021/09/14 13:50:09;;;;;;;5.2;3.1;;;;;;;27.35;47.16113;936.86;;;;
2021/09/14 13:52:34;;;;;;;5.5;3.1;;;;;;;27.57;47.6123;936.8262;;;;
2021/09/14 13:54:59;;;;;;;3.9;3;;;;;;;27.88;46.95605;936.8182;;;;
2021/09/14 13:57:24;;;;;;;4.2;2.8;;;;;;;28.19;45.56152;936.8649;;;;
2021/09/14 13:59:49;;;;;;;3.9;3;;;;;;;28.35;45.63672;936.872;;;;
2021/09/14 14:02:14;;;;;;;3.2;2.9;;;;;;;28.44;44.38672;936.9532;;;;
2021/09/14 14:04:40;;;;;;;3.8;2.9;;;;;;;28.28;45.82031;936.9564;;;;
2021/09/14 14:07:05;;;;;;;3;2.7;;;;;;;28.1;46.7998;936.9088;;;;
2021/09/14 14:09:30;;;;;;;9.6;3.4;;;;;;;28.16;46.20117;936.9014;;;;
2021/09/14 14:11:55;;;;;;;4.5;2.6;;;;;;;28.1;49.16602;936.8455;;;;
2021/09/14 14:14:23;;;;;;;5;3;;;;;;;28.25;46.47266;936.9138;;;;
2021/09/14 14:16:48;;;;;;;3.6;2.7;;;;;;;28.32;46.2041;936.8786;;;;
2021/09/14 14:19:13;;;;;;;3.4;2.8;;;;;;;28.45;45.81543;936.9073;;;;
2021/09/14 14:21:38;;;;;;;5.3;3;;;;;;;28.42;45.87109;936.851;;;;
2021/09/14 14:24:03;;;;;;;3.7;3;;;;;;;28.32;45.73047;936.8431;;;;
2021/09/14 14:26:29;;;;;;;3.6;2.8;;;;;;;28.17;45.47656;936.8873;;;;
2021/09/14 14:28:54;;;;;;;3.9;2.8;;;;;;;28.3;46.13184;936.9214;;;;
2021/09/14 14:31:19;;;;;;;3.2;2.7;;;;;;;28.35;45.79102;936.9097;;;;
2021/09/14 14:33:46;;;;;;;5;3.1;;;;;;;28.48;45.70996;936.9149;;;;
2021/09/14 14:36:09;;;;;;;3.9;2.9;;;;;;;28.41;44.75195;936.9325;;;;
2021/09/14 14:38:38;;;;;;;3.9;2.7;;;;;;;28.47;45.86426;936.9324;;;;
2021/09/14 14:40:59;;;;;;;4.8;2.7;;;;;;;28.49;44.8916;936.897;;;;
2021/09/14 14:43:25;;;;;;;4.4;2.9;;;;;;;28.31;45.21777;936.9052;;;;
2021/09/14 14:45:51;;;;;;;4.2;2.9;;;;;;;28.26;44.87988;936.9282;;;;
2021/09/14 14:48:16;;;;;;;3.8;3.2;;;;;;;28.25;45.34277;936.8958;;;;
2021/09/14 14:50:43;;;;;;;3.1;2.8;;;;;;;28.18;45.57324;936.8962;;;;
2021/09/14 14:53:08;;;;;;;3.6;2.9;;;;;;;28;45.83984;936.8557;;;;
2021/09/14 14:55:33;;;;;;;5.1;2.9;;;;;;;27.85;47.07129;936.8744;;;;
2021/09/14 14:57:58;;;;;;;3.4;3.1;;;;;;;27.77;47.20605;936.8723;;;;
2021/09/14 15:00:23;;;;;;;4.4;2.9;;;;;;;27.43;48.12012;936.8677;;;;
2021/09/14 15:02:48;;;;;;;4;2.9;;;;;;;27.46;48.20508;936.8943;;;;
2021/09/14 15:05:13;;;;;;;3.2;2.9;;;;;;;27.42;48.65137;936.8934;;;;
2021/09/14 15:07:38;;;;;;;6;3.6;;;;;;;27.39;49.09961;936.9247;;;;
2021/09/14 15:10:03;;;;;;;4.1;3.3;;;;;;;27.37;48.72949;936.9249;;;;
2021/09/14 15:12:28;;;;;;;3.5;2.7;;;;;;;27.42;48.90039;936.9697;;;;
2021/09/14 15:14:54;;;;;;;5.3;3;;;;;;;27.35;47.89746;936.98;;;;
2021/09/14 15:17:19;;;;;;;8.2;3.4;;;;;;;27.37;47.875;936.9278;;;;
2021/09/14 15:19:44;;;;;;;4.1;3.1;;;;;;;27.37;48.44531;936.9203;;;;
2021/09/14 15:22:09;;;;;;;3.4;3.1;;;;;;;27.2;49.74316;936.9369;;;;
2021/09/14 15:24:34;;;;;;;3.2;2.9;;;;;;;27.17;48.89648;936.968;;;;
2021/09/14 15:27:00;;;;;;;4.3;2.9;;;;;;;27.14;49.42773;936.96;;;;
2021/09/14 15:29:24;;;;;;;4.4;3;;;;;;;27.15;49.6416;936.963;;;;
2021/09/14 15:31:50;;;;;;;3.5;3;;;;;;;27.08;49.68262;936.9724;;;;
2021/09/14 15:34:15;;;;;;;3.5;3;;;;;;;27.16;49.71387;936.9372;;;;
2021/09/14 15:36:40;;;;;;;4.3;2.7;;;;;;;27.15;49.89063;937.0198;;;;
2021/09/14 15:39:05;;;;;;;3.5;3;;;;;;;27.18;50.03711;936.9651;;;;
2021/09/14 15:41:33;;;;;;;2.9;2.6;;;;;;;27.16;49.89258;936.9686;;;;
2021/09/14 15:43:56;;;;;;;3.3;3;;;;;;;27.12;50.00684;936.8958;;;;
2021/09/14 15:46:22;;;;;;;3.7;3;;;;;;;27;49.24707;936.9651;;;;
2021/09/14 15:48:46;;;;;;;4.5;3;;;;;;;26.93;49.9502;936.9378;;;;
2021/09/14 15:51:11;;;;;;;3.7;2.9;;;;;;;26.91;50.52832;936.952;;;;
2021/09/14 15:53:36;;;;;;;4.1;3.3;;;;;;;26.82;50.25781;936.9967;;;;
2021/09/14 15:56:01;;;;;;;3;2.7;;;;;;;26.7;50.72949;936.9816;;;;
2021/09/14 15:58:27;;;;;;;3.7;3;;;;;;;26.7;51.04883;937.0927;;;;
2021/09/14 16:00:52;;;;;;;5.1;2.9;;;;;;;26.64;50.78125;937.0372;;;;
2021/09/14 16:03:17;;;;;;;3.2;2.9;;;;;;;26.65;51.00781;937.1295;;;;
2021/09/14 16:05:44;;;;;;;3.5;2.8;;;;;;;26.61;51.26367;937.1167;;;;
2021/09/14 16:08:09;;;;;;;3.5;2.7;;;;;;;26.59;50.90625;937.0868;;;;